Quail, TX (79251)

10:44 AM CST on December 18, 2014 (GMT -0600)
WT_Meso Memphis 1NE | Change Station
CLOSE
Current Station
Personal Weather Station
Location: Memphis, TX
Elevation: 2057 ft
Nearby Weather Stations

Elev 2057 ft 34.73 °N, 100.53 °W | Updated 49 minutes ago

Overcast
Overcast
41 °F
Feels Like 41 °F
N
3
Wind Variable Wind from NNE
Gusts 5.0 mph

Today
High -- | Low -- °F
--% Chance of Precip.
Yesterday
High -- | Low -- °F
Precip. -- in
7:44 AM 5:32 PM
Waning Crescent, 13% visible
Pressure 30.16 in
Visibility 10.0 miles
Clouds Scattered Clouds 700 ft
Overcast 1200 ft
Windchill 41 °F
Dew Point 40 °F
Humidity 100%
Rainfall -999.00 in
Snow Depth Not available.
UV 0 out of 12
Pollen 6.60 out of 12
Air Quality Not available.
Flu Activity Not available.
METAR KCDS 181553Z AUTO 04005KT 10SM SCT007 OVC012 06/04 A3015 RMK AO2 SLP213 T00610044

More Conditions Fewer Conditions

Pressure 30.16 in
Visibility 10.0 miles
Clouds Scattered Clouds 700 ft
Overcast 1200 ft
Windchill 41 °F
Dew Point 40 °F
Humidity 100%
Rainfall -999.00 in
Snow Depth Not available.
UV 0 out of 12
Pollen 6.60 out of 12
Air Quality Not available.
Flu Activity Not available.
METAR KCDS 181553Z AUTO 04005KT 10SM SCT007 OVC012 06/04 A3015 RMK AO2 SLP213 T00610044

More Conditions Fewer Conditions

Nowcast | as of 10:05 am CST on December 18, 2014

Areas of fog and drizzle will persist across much of the Oklahoma and Texas panhandles through noon. Visibilities will be reduced to below 2 miles at times. Conditions are expected to improve late this morning into the early afternoon hours.

×

10-Day Weather Forecast

Almanac

Astronomy

Dec. 18, 2014 Rise Set
Actual Time
Civil Twilight
Nautical Twilight
Astronomical Twilight
Moon
Length of Visible Light
Length of Day
Tomorrow will be .
, % of the Moon is Illuminated

Today's Extremes

State Highs State Lows

Community

WunderPhotos

Upload Photos

1,778,960 photos uploaded!

WunderBlogs® & News

Nearby

Air Quality

  Air Quality AQ Index Pollutant
Not available.

Snow Depth

Station Depth Elevation

Earthquake Activity

City Distance Mag. Time & Date
Minimum magnitude displayed is 2.5.

Coastal Water Temperatures

Place Temperature

Nearby Weather Stations